sensor_id;sensor_type;location;lat;lon;timestamp;temperature;humidity
27439;DHT22;14887;51.252;7.470;2023-09-12T00:00:52;20.40;69.60
27439;DHT22;14887;51.252;7.470;2023-09-12T00:03:22;20.40;73.00
27439;DHT22;14887;51.252;7.470;2023-09-12T00:05:52;20.40;81.60
27439;DHT22;14887;51.252;7.470;2023-09-12T00:08:18;20.30;92.50
27439;DHT22;14887;51.252;7.470;2023-09-12T00:10:44;20.30;99.90
27439;DHT22;14887;51.252;7.470;2023-09-12T00:13:09;20.20;99.90
27439;DHT22;14887;51.252;7.470;2023-09-12T00:15:35;20.20;99.90
27439;DHT22;14887;51.252;7.470;2023-09-12T00:18:00;20.20;99.90
27439;DHT22;14887;51.252;7.470;2023-09-12T00:20:26;20.20;99.90
27439;DHT22;14887;51.252;7.470;2023-09-12T00:22:51;20.30;99.90
27439;DHT22;14887;51.252;7.470;2023-09-12T00:25:18;20.20;99.90
27439;DHT22;14887;51.252;7.470;2023-09-12T00:27:44;20.20;98.80
27439;DHT22;14887;51.252;7.470;2023-09-12T00:30:10;20.20;68.00
27439;DHT22;14887;51.252;7.470;2023-09-12T00:32:35;20.20;33.60
27439;DHT22;14887;51.252;7.470;2023-09-12T00:35:01;20.10;52.10
27439;DHT22;14887;51.252;7.470;2023-09-12T00:37:26;20.10;48.00
27439;DHT22;14887;51.252;7.470;2023-09-12T00:39:52;20.10;25.60
27439;DHT22;14887;51.252;7.470;2023-09-12T00:42:18;20.20;18.10
27439;DHT22;14887;51.252;7.470;2023-09-12T00:44:44;20.20;10.10
27439;DHT22;14887;51.252;7.470;2023-09-12T00:47:10;20.20;1.00
27439;DHT22;14887;51.252;7.470;2023-09-12T00:49:38;20.30;1.00
27439;DHT22;14887;51.252;7.470;2023-09-12T00:52:04;20.20;1.00
27439;DHT22;14887;51.252;7.470;2023-09-12T00:54:30;20.20;1.00
27439;DHT22;14887;51.252;7.470;2023-09-12T00:56:55;20.20;1.00
27439;DHT22;14887;51.252;7.470;2023-09-12T00:59:23;20.20;1.00
27439;DHT22;14887;51.252;7.470;2023-09-12T01:01:48;20.20;1.00
27439;DHT22;14887;51.252;7.470;2023-09-12T01:04:14;20.10;1.00
27439;DHT22;14887;51.252;7.470;2023-09-12T01:06:40;20.10;1.00
27439;DHT22;14887;51.252;7.470;2023-09-12T01:09:05;20.00;1.00
27439;DHT22;14887;51.252;7.470;2023-09-12T01:11:31;20.10;1.00
27439;DHT22;14887;51.252;7.470;2023-09-12T01:13:57;20.10;1.00
27439;DHT22;14887;51.252;7.470;2023-09-12T01:16:23;20.20;1.00
27439;DHT22;14887;51.252;7.470;2023-09-12T01:18:49;20.20;1.00
27439;DHT22;14887;51.252;7.470;2023-09-12T01:21:37;20.30;1.00
27439;DHT22;14887;51.252;7.470;2023-09-12T01:26:59;20.20;1.00
27439;DHT22;14887;51.252;7.470;2023-09-12T01:29:30;20.00;1.00
27439;DHT22;14887;51.252;7.470;2023-09-12T01:31:57;20.00;1.00
27439;DHT22;14887;51.252;7.470;2023-09-12T01:34:23;19.90;1.00
27439;DHT22;14887;51.252;7.470;2023-09-12T01:36:49;19.90;1.00
27439;DHT22;14887;51.252;7.470;2023-09-12T01:39:14;19.80;31.00
27439;DHT22;14887;51.252;7.470;2023-09-12T01:41:42;19.80;30.60
27439;DHT22;14887;51.252;7.470;2023-09-12T01:44:11;19.80;26.70
27439;DHT22;14887;51.252;7.470;2023-09-12T01:46:37;19.80;25.90
27439;DHT22;14887;51.252;7.470;2023-09-12T01:49:05;19.70;54.00
27439;DHT22;14887;51.252;7.470;2023-09-12T01:51:33;19.60;64.70
27439;DHT22;14887;51.252;7.470;2023-09-12T01:54:00;19.60;52.00
27439;DHT22;14887;51.252;7.470;2023-09-12T01:56:26;19.50;84.30
27439;DHT22;14887;51.252;7.470;2023-09-12T01:58:51;19.60;61.00
27439;DHT22;14887;51.252;7.470;2023-09-12T02:01:17;19.50;67.60
27439;DHT22;14887;51.252;7.470;2023-09-12T02:03:42;19.40;75.60
27439;DHT22;14887;51.252;7.470;2023-09-12T02:06:08;19.40;90.30
27439;DHT22;14887;51.252;7.470;2023-09-12T02:08:33;19.30;80.10
27439;DHT22;14887;51.252;7.470;2023-09-12T02:10:59;19.30;93.20
27439;DHT22;14887;51.252;7.470;2023-09-12T02:13:24;19.30;71.20
27439;DHT22;14887;51.252;7.470;2023-09-12T02:15:50;19.30;79.50
27439;DHT22;14887;51.252;7.470;2023-09-12T02:18:23;19.30;54.10
27439;DHT22;14887;51.252;7.470;2023-09-12T02:20:49;19.10;84.40
27439;DHT22;14887;51.252;7.470;2023-09-12T02:23:14;19.10;93.10
27439;DHT22;14887;51.252;7.470;2023-09-12T02:25:40;19.00;96.30
27439;DHT22;14887;51.252;7.470;2023-09-12T02:28:05;19.00;49.10
27439;DHT22;14887;51.252;7.470;2023-09-12T02:30:31;18.90;64.10
27439;DHT22;14887;51.252;7.470;2023-09-12T02:32:56;18.90;73.50
27439;DHT22;14887;51.252;7.470;2023-09-12T02:35:22;19.10;50.60
27439;DHT22;14887;51.252;7.470;2023-09-12T02:37:48;19.00;15.20
27439;DHT22;14887;51.252;7.470;2023-09-12T02:40:14;19.00;1.00
27439;DHT22;14887;51.252;7.470;2023-09-12T02:42:40;18.90;1.00
27439;DHT22;14887;51.252;7.470;2023-09-12T02:45:06;18.80;1.00
27439;DHT22;14887;51.252;7.470;2023-09-12T02:47:31;18.80;31.60
27439;DHT22;14887;51.252;7.470;2023-09-12T02:49:57;18.90;8.70
27439;DHT22;14887;51.252;7.470;2023-09-12T02:52:23;18.90;1.00
27439;DHT22;14887;51.252;7.470;2023-09-12T02:54:48;18.80;3.80
27439;DHT22;14887;51.252;7.470;2023-09-12T02:57:14;18.80;1.00
27439;DHT22;14887;51.252;7.470;2023-09-12T02:59:39;18.80;10.20
27439;DHT22;14887;51.252;7.470;2023-09-12T03:02:05;18.80;1.00
27439;DHT22;14887;51.252;7.470;2023-09-12T03:04:30;18.80;20.70
27439;DHT22;14887;51.252;7.470;2023-09-12T03:06:56;18.80;6.20
27439;DHT22;14887;51.252;7.470;2023-09-12T03:09:21;18.70;13.40
27439;DHT22;14887;51.252;7.470;2023-09-12T03:11:49;18.60;28.20
27439;DHT22;14887;51.252;7.470;2023-09-12T03:14:15;18.60;35.70
27439;DHT22;14887;51.252;7.470;2023-09-12T03:16:40;18.60;33.00
27439;DHT22;14887;51.252;7.470;2023-09-12T03:19:06;18.70;23.50
27439;DHT22;14887;51.252;7.470;2023-09-12T03:21:31;18.60;28.60
27439;DHT22;14887;51.252;7.470;2023-09-12T03:23:57;18.80;22.00
27439;DHT22;14887;51.252;7.470;2023-09-12T03:26:23;18.90;1.00
27439;DHT22;14887;51.252;7.470;2023-09-12T03:28:49;19.00;1.00
27439;DHT22;14887;51.252;7.470;2023-09-12T03:31:16;19.00;1.00
27439;DHT22;14887;51.252;7.470;2023-09-12T03:33:43;19.00;1.00
27439;DHT22;14887;51.252;7.470;2023-09-12T03:36:13;18.80;1.00
27439;DHT22;14887;51.252;7.470;2023-09-12T03:38:38;18.70;1.00
27439;DHT22;14887;51.252;7.470;2023-09-12T03:41:04;18.50;1.00
27439;DHT22;14887;51.252;7.470;2023-09-12T03:43:30;18.40;16.50
27439;DHT22;14887;51.252;7.470;2023-09-12T03:45:55;18.50;27.40
27439;DHT22;14887;51.252;7.470;2023-09-12T03:48:21;18.40;29.60
27439;DHT22;14887;51.252;7.470;2023-09-12T03:50:47;18.50;39.80
27439;DHT22;14887;51.252;7.470;2023-09-12T03:53:14;18.50;45.20
27439;DHT22;14887;51.252;7.470;2023-09-12T03:55:39;18.40;27.20
27439;DHT22;14887;51.252;7.470;2023-09-12T03:58:05;18.40;41.10
27439;DHT22;14887;51.252;7.470;2023-09-12T04:00:31;18.30;31.40
27439;DHT22;14887;51.252;7.470;2023-09-12T04:02:56;18.40;26.20
27439;DHT22;14887;51.252;7.470;2023-09-12T04:05:22;18.40;26.80
27439;DHT22;14887;51.252;7.470;2023-09-12T04:07:47;18.40;19.50
27439;DHT22;14887;51.252;7.470;2023-09-12T04:10:13;18.30;24.60
27439;DHT22;14887;51.252;7.470;2023-09-12T04:12:39;18.20;32.80
27439;DHT22;14887;51.252;7.470;2023-09-12T04:15:05;18.20;42.20
27439;DHT22;14887;51.252;7.470;2023-09-12T04:17:31;18.20;43.40
27439;DHT22;14887;51.252;7.470;2023-09-12T04:19:57;18.20;23.00
27439;DHT22;14887;51.252;7.470;2023-09-12T04:22:22;18.00;37.50
27439;DHT22;14887;51.252;7.470;2023-09-12T04:24:48;17.90;49.00
27439;DHT22;14887;51.252;7.470;2023-09-12T04:27:13;17.90;52.10
27439;DHT22;14887;51.252;7.470;2023-09-12T04:29:39;17.70;51.60
27439;DHT22;14887;51.252;7.470;2023-09-12T04:32:05;17.60;59.20
27439;DHT22;14887;51.252;7.470;2023-09-12T04:34:31;17.60;69.00
27439;DHT22;14887;51.252;7.470;2023-09-12T04:36:57;17.60;80.00
27439;DHT22;14887;51.252;7.470;2023-09-12T04:39:25;17.60;91.70
27439;DHT22;14887;51.252;7.470;2023-09-12T04:41:51;17.60;78.10
27439;DHT22;14887;51.252;7.470;2023-09-12T04:44:17;17.70;88.50
27439;DHT22;14887;51.252;7.470;2023-09-12T04:46:42;17.70;85.10
27439;DHT22;14887;51.252;7.470;2023-09-12T04:49:08;17.70;82.20
27439;DHT22;14887;51.252;7.470;2023-09-12T04:51:33;17.70;93.50
27439;DHT22;14887;51.252;7.470;2023-09-12T04:54:00;17.70;80.00
27439;DHT22;14887;51.252;7.470;2023-09-12T04:56:25;17.70;84.60
27439;DHT22;14887;51.252;7.470;2023-09-12T04:58:51;17.70;90.80
27439;DHT22;14887;51.252;7.470;2023-09-12T05:01:17;17.70;92.10
27439;DHT22;14887;51.252;7.470;2023-09-12T05:03:43;17.70;81.30
27439;DHT22;14887;51.252;7.470;2023-09-12T05:06:09;17.80;75.20
27439;DHT22;14887;51.252;7.470;2023-09-12T05:08:35;17.90;76.40
27439;DHT22;14887;51.252;7.470;2023-09-12T05:11:01;17.90;57.20
27439;DHT22;14887;51.252;7.470;2023-09-12T05:13:27;17.90;35.80
27439;DHT22;14887;51.252;7.470;2023-09-12T05:15:53;17.90;46.80
27439;DHT22;14887;51.252;7.470;2023-09-12T05:18:19;17.90;72.90
27439;DHT22;14887;51.252;7.470;2023-09-12T05:20:44;17.90;56.90
27439;DHT22;14887;51.252;7.470;2023-09-12T05:23:10;17.90;64.80
27439;DHT22;14887;51.252;7.470;2023-09-12T05:25:36;17.90;64.30
27439;DHT22;14887;51.252;7.470;2023-09-12T05:28:02;17.90;50.40
27439;DHT22;14887;51.252;7.470;2023-09-12T05:30:28;17.90;76.40
27439;DHT22;14887;51.252;7.470;2023-09-12T05:32:54;18.00;32.90
27439;DHT22;14887;51.252;7.470;2023-09-12T05:35:19;17.90;39.80
27439;DHT22;14887;51.252;7.470;2023-09-12T05:37:45;18.00;51.30
27439;DHT22;14887;51.252;7.470;2023-09-12T05:40:10;18.10;59.60
27439;DHT22;14887;51.252;7.470;2023-09-12T05:42:36;18.20;41.00
27439;DHT22;14887;51.252;7.470;2023-09-12T05:45:02;18.20;36.40
27439;DHT22;14887;51.252;7.470;2023-09-12T05:47:27;18.30;16.80
27439;DHT22;14887;51.252;7.470;2023-09-12T05:49:53;18.20;34.10
27439;DHT22;14887;51.252;7.470;2023-09-12T05:52:20;18.30;20.10
27439;DHT22;14887;51.252;7.470;2023-09-12T05:54:45;18.30;1.00
27439;DHT22;14887;51.252;7.470;2023-09-12T05:57:11;18.30;1.00
27439;DHT22;14887;51.252;7.470;2023-09-12T05:59:38;18.40;1.00
27439;DHT22;14887;51.252;7.470;2023-09-12T06:02:04;18.50;1.00
27439;DHT22;14887;51.252;7.470;2023-09-12T06:04:31;18.70;1.00
27439;DHT22;14887;51.252;7.470;2023-09-12T06:06:57;18.80;1.00
27439;DHT22;14887;51.252;7.470;2023-09-12T06:09:23;18.80;1.00
27439;DHT22;14887;51.252;7.470;2023-09-12T06:11:48;18.90;1.00
27439;DHT22;14887;51.252;7.470;2023-09-12T06:14:14;18.90;1.00
27439;DHT22;14887;51.252;7.470;2023-09-12T06:16:39;18.90;1.00
27439;DHT22;14887;51.252;7.470;2023-09-12T06:19:05;19.00;1.00
27439;DHT22;14887;51.252;7.470;2023-09-12T06:21:30;19.10;1.00
27439;DHT22;14887;51.252;7.470;2023-09-12T06:24:28;19.10;1.00
27439;DHT22;14887;51.252;7.470;2023-09-12T06:26:54;19.20;1.00
27439;DHT22;14887;51.252;7.470;2023-09-12T06:29:19;19.30;1.00
27439;DHT22;14887;51.252;7.470;2023-09-12T06:31:45;19.40;99.90
27439;DHT22;14887;51.252;7.470;2023-09-12T06:34:11;19.60;99.90
27439;DHT22;14887;51.252;7.470;2023-09-12T06:36:50;19.70;99.90
27439;DHT22;14887;51.252;7.470;2023-09-12T06:39:15;19.90;1.00
27439;DHT22;14887;51.252;7.470;2023-09-12T06:41:41;20.00;99.90
27439;DHT22;14887;51.252;7.470;2023-09-12T06:44:06;20.10;99.90
27439;DHT22;14887;51.252;7.470;2023-09-12T06:46:32;20.20;1.00
27439;DHT22;14887;51.252;7.470;2023-09-12T06:49:01;20.40;99.90
27439;DHT22;14887;51.252;7.470;2023-09-12T06:51:27;20.50;1.00
27439;DHT22;14887;51.252;7.470;2023-09-12T06:53:53;20.80;1.00
27439;DHT22;14887;51.252;7.470;2023-09-12T06:56:19;20.90;1.00
27439;DHT22;14887;51.252;7.470;2023-09-12T06:58:45;20.90;1.00
27439;DHT22;14887;51.252;7.470;2023-09-12T07:01:10;20.90;1.00
27439;DHT22;14887;51.252;7.470;2023-09-12T07:03:36;21.00;1.00
27439;DHT22;14887;51.252;7.470;2023-09-12T07:06:03;21.00;99.90
27439;DHT22;14887;51.252;7.470;2023-09-12T07:08:30;21.10;1.00
27439;DHT22;14887;51.252;7.470;2023-09-12T07:10:55;21.00;99.90
27439;DHT22;14887;51.252;7.470;2023-09-12T07:13:22;21.10;99.90
27439;DHT22;14887;51.252;7.470;2023-09-12T07:15:49;21.10;1.00
27439;DHT22;14887;51.252;7.470;2023-09-12T07:18:14;20.90;47.40
27439;DHT22;14887;51.252;7.470;2023-09-12T07:20:40;20.70;1.00
27439;DHT22;14887;51.252;7.470;2023-09-12T07:23:06;20.50;99.90
27439;DHT22;14887;51.252;7.470;2023-09-12T07:25:38;20.20;99.90
27439;DHT22;14887;51.252;7.470;2023-09-12T07:28:04;20.00;1.00
27439;DHT22;14887;51.252;7.470;2023-09-12T07:30:30;19.80;1.00
27439;DHT22;14887;51.252;7.470;2023-09-12T07:32:56;19.70;1.00
27439;DHT22;14887;51.252;7.470;2023-09-12T07:35:21;19.70;1.00
27439;DHT22;14887;51.252;7.470;2023-09-12T07:37:49;19.90;1.00
27439;DHT22;14887;51.252;7.470;2023-09-12T07:40:16;20.10;1.00
27439;DHT22;14887;51.252;7.470;2023-09-12T07:42:41;20.10;99.90
27439;DHT22;14887;51.252;7.470;2023-09-12T07:45:08;20.10;99.90
27439;DHT22;14887;51.252;7.470;2023-09-12T07:47:33;20.00;1.00
27439;DHT22;14887;51.252;7.470;2023-09-12T07:49:59;20.20;1.00
27439;DHT22;14887;51.252;7.470;2023-09-12T07:52:26;20.50;1.00
27439;DHT22;14887;51.252;7.470;2023-09-12T07:54:52;20.60;96.60
27439;DHT22;14887;51.252;7.470;2023-09-12T07:57:22;21.10;99.90
27439;DHT22;14887;51.252;7.470;2023-09-12T07:59:48;21.30;1.00
27439;DHT22;14887;51.252;7.470;2023-09-12T08:02:14;21.60;99.90
27439;DHT22;14887;51.252;7.470;2023-09-12T08:04:39;22.40;1.00
27439;DHT22;14887;51.252;7.470;2023-09-12T08:07:05;22.90;99.90
27439;DHT22;14887;51.252;7.470;2023-09-12T08:09:51;23.40;99.90
27439;DHT22;14887;51.252;7.470;2023-09-12T08:12:21;23.30;48.60
27439;DHT22;14887;51.252;7.470;2023-09-12T08:14:46;23.10;99.90
27439;DHT22;14887;51.252;7.470;2023-09-12T08:17:13;23.20;99.90
27439;DHT22;14887;51.252;7.470;2023-09-12T08:19:39;22.90;99.90
27439;DHT22;14887;51.252;7.470;2023-09-12T08:22:06;22.80;99.90
27439;DHT22;14887;51.252;7.470;2023-09-12T08:24:32;22.90;99.90
27439;DHT22;14887;51.252;7.470;2023-09-12T08:26:58;22.70;99.90
27439;DHT22;14887;51.252;7.470;2023-09-12T08:29:24;22.60;99.90
27439;DHT22;14887;51.252;7.470;2023-09-12T08:31:49;22.60;99.90
27439;DHT22;14887;51.252;7.470;2023-09-12T08:34:15;22.50;1.00
27439;DHT22;14887;51.252;7.470;2023-09-12T08:36:41;22.40;1.00
27439;DHT22;14887;51.252;7.470;2023-09-12T08:39:06;22.10;1.00
27439;DHT22;14887;51.252;7.470;2023-09-12T08:41:34;21.90;1.00
27439;DHT22;14887;51.252;7.470;2023-09-12T08:44:01;21.70;1.00
27439;DHT22;14887;51.252;7.470;2023-09-12T08:46:27;21.50;1.00
27439;DHT22;14887;51.252;7.470;2023-09-12T08:48:55;21.60;97.70
27439;DHT22;14887;51.252;7.470;2023-09-12T08:51:25;21.60;99.90
27439;DHT22;14887;51.252;7.470;2023-09-12T08:53:51;21.70;1.00
27439;DHT22;14887;51.252;7.470;2023-09-12T08:56:18;21.90;1.00
27439;DHT22;14887;51.252;7.470;2023-09-12T08:58:45;22.20;1.00
27439;DHT22;14887;51.252;7.470;2023-09-12T09:01:13;22.50;1.00
27439;DHT22;14887;51.252;7.470;2023-09-12T09:03:41;22.40;99.90
27439;DHT22;14887;51.252;7.470;2023-09-12T09:06:08;22.40;1.00
27439;DHT22;14887;51.252;7.470;2023-09-12T09:08:34;22.40;99.90
27439;DHT22;14887;51.252;7.470;2023-09-12T09:11:00;22.60;1.00
27439;DHT22;14887;51.252;7.470;2023-09-12T09:13:34;22.70;99.90
27439;DHT22;14887;51.252;7.470;2023-09-12T09:16:15;23.30;99.90
27439;DHT22;14887;51.252;7.470;2023-09-12T09:19:00;23.70;77.90
27439;DHT22;14887;51.252;7.470;2023-09-12T09:21:27;24.30;1.00
27439;DHT22;14887;51.252;7.470;2023-09-12T09:23:55;25.00;1.00
27439;DHT22;14887;51.252;7.470;2023-09-12T09:26:21;25.60;1.00
27439;DHT22;14887;51.252;7.470;2023-09-12T09:29:25;25.80;99.90
27439;DHT22;14887;51.252;7.470;2023-09-12T09:31:52;26.10;99.90
27439;DHT22;14887;51.252;7.470;2023-09-12T09:34:19;26.30;99.90
27439;DHT22;14887;51.252;7.470;2023-09-12T09:36:50;26.60;99.90
27439;DHT22;14887;51.252;7.470;2023-09-12T09:39:18;26.60;99.90
27439;DHT22;14887;51.252;7.470;2023-09-12T09:41:53;26.90;99.90
27439;DHT22;14887;51.252;7.470;2023-09-12T09:44:22;26.60;99.90
27439;DHT22;14887;51.252;7.470;2023-09-12T09:46:55;27.00;99.90
27439;DHT22;14887;51.252;7.470;2023-09-12T09:49:21;27.20;99.90
27439;DHT22;14887;51.252;7.470;2023-09-12T09:51:47;27.30;99.90
27439;DHT22;14887;51.252;7.470;2023-09-12T09:54:13;27.20;99.90
27439;DHT22;14887;51.252;7.470;2023-09-12T09:56:49;27.20;99.90
27439;DHT22;14887;51.252;7.470;2023-09-12T09:59:16;27.10;99.90
27439;DHT22;14887;51.252;7.470;2023-09-12T10:01:44;27.30;99.90
27439;DHT22;14887;51.252;7.470;2023-09-12T10:04:10;27.20;99.90
27439;DHT22;14887;51.252;7.470;2023-09-12T10:06:37;27.80;99.90
27439;DHT22;14887;51.252;7.470;2023-09-12T10:09:07;28.00;99.90
27439;DHT22;14887;51.252;7.470;2023-09-12T10:11:35;28.50;99.90
27439;DHT22;14887;51.252;7.470;2023-09-12T10:14:05;28.00;99.90
27439;DHT22;14887;51.252;7.470;2023-09-12T10:16:36;27.70;99.90
27439;DHT22;14887;51.252;7.470;2023-09-12T10:19:19;27.50;99.90
27439;DHT22;14887;51.252;7.470;2023-09-12T10:21:53;27.20;99.90
27439;DHT22;14887;51.252;7.470;2023-09-12T10:24:23;27.10;99.90
27439;DHT22;14887;51.252;7.470;2023-09-12T10:26:50;27.20;99.90
27439;DHT22;14887;51.252;7.470;2023-09-12T10:29:17;27.50;99.90
27439;DHT22;14887;51.252;7.470;2023-09-12T10:31:43;27.30;99.90
27439;DHT22;14887;51.252;7.470;2023-09-12T10:34:11;27.40;99.90
27439;DHT22;14887;51.252;7.470;2023-09-12T10:36:39;27.30;99.90
27439;DHT22;14887;51.252;7.470;2023-09-12T10:39:07;27.70;99.90
27439;DHT22;14887;51.252;7.470;2023-09-12T10:41:37;28.00;99.90
27439;DHT22;14887;51.252;7.470;2023-09-12T10:44:10;28.00;99.90
27439;DHT22;14887;51.252;7.470;2023-09-12T10:46:40;28.40;99.90
27439;DHT22;14887;51.252;7.470;2023-09-12T10:49:11;28.50;99.90
27439;DHT22;14887;51.252;7.470;2023-09-12T10:51:41;28.80;99.90
27439;DHT22;14887;51.252;7.470;2023-09-12T10:54:09;28.70;99.90
27439;DHT22;14887;51.252;7.470;2023-09-12T10:56:37;28.80;99.90
27439;DHT22;14887;51.252;7.470;2023-09-12T11:01:42;28.50;99.90
27439;DHT22;14887;51.252;7.470;2023-09-12T11:06:49;29.00;99.90
27439;DHT22;14887;51.252;7.470;2023-09-12T11:09:18;28.90;99.90
27439;DHT22;14887;51.252;7.470;2023-09-12T11:12:34;29.10;99.90
27439;DHT22;14887;51.252;7.470;2023-09-12T11:15:04;28.90;99.90
27439;DHT22;14887;51.252;7.470;2023-09-12T11:17:46;28.80;99.90
27439;DHT22;14887;51.252;7.470;2023-09-12T11:20:13;28.50;99.90
27439;DHT22;14887;51.252;7.470;2023-09-12T11:22:40;28.30;99.90
27439;DHT22;14887;51.252;7.470;2023-09-12T11:25:17;28.40;99.90
27439;DHT22;14887;51.252;7.470;2023-09-12T11:30:20;28.10;99.90
27439;DHT22;14887;51.252;7.470;2023-09-12T11:32:47;28.30;99.90
27439;DHT22;14887;51.252;7.470;2023-09-12T11:35:14;28.30;99.90
27439;DHT22;14887;51.252;7.470;2023-09-12T11:37:58;28.00;99.90
27439;DHT22;14887;51.252;7.470;2023-09-12T11:40:25;27.70;99.90
27439;DHT22;14887;51.252;7.470;2023-09-12T11:42:50;28.00;99.90
27439;DHT22;14887;51.252;7.470;2023-09-12T11:45:20;28.50;99.90
27439;DHT22;14887;51.252;7.470;2023-09-12T11:47:47;28.40;99.90
27439;DHT22;14887;51.252;7.470;2023-09-12T11:50:29;28.30;99.90
27439;DHT22;14887;51.252;7.470;2023-09-12T11:53:10;28.40;99.90
27439;DHT22;14887;51.252;7.470;2023-09-12T11:55:37;28.60;99.90
27439;DHT22;14887;51.252;7.470;2023-09-12T11:58:03;28.60;99.90
27439;DHT22;14887;51.252;7.470;2023-09-12T12:00:29;28.20;99.90
27439;DHT22;14887;51.252;7.470;2023-09-12T12:02:56;28.50;99.90
27439;DHT22;14887;51.252;7.470;2023-09-12T12:05:22;29.00;99.90
27439;DHT22;14887;51.252;7.470;2023-09-12T12:07:48;29.10;99.90
27439;DHT22;14887;51.252;7.470;2023-09-12T12:10:15;29.10;99.90
27439;DHT22;14887;51.252;7.470;2023-09-12T12:12:43;28.80;99.90
27439;DHT22;14887;51.252;7.470;2023-09-12T12:15:10;28.90;99.90
27439;DHT22;14887;51.252;7.470;2023-09-12T12:17:42;29.10;99.90
27439;DHT22;14887;51.252;7.470;2023-09-12T12:20:09;29.00;99.90
27439;DHT22;14887;51.252;7.470;2023-09-12T12:22:40;28.90;99.90
27439;DHT22;14887;51.252;7.470;2023-09-12T12:25:10;29.00;99.90
27439;DHT22;14887;51.252;7.470;2023-09-12T12:27:39;29.20;99.90
27439;DHT22;14887;51.252;7.470;2023-09-12T12:30:09;29.70;99.90
27439;DHT22;14887;51.252;7.470;2023-09-12T12:32:42;29.70;99.90
27439;DHT22;14887;51.252;7.470;2023-09-12T12:35:09;29.70;99.90
27439;DHT22;14887;51.252;7.470;2023-09-12T12:37:36;29.50;99.90
27439;DHT22;14887;51.252;7.470;2023-09-12T12:40:02;29.10;99.90
27439;DHT22;14887;51.252;7.470;2023-09-12T12:42:38;28.90;99.90
27439;DHT22;14887;51.252;7.470;2023-09-12T12:45:14;28.80;99.90
27439;DHT22;14887;51.252;7.470;2023-09-12T12:47:41;29.50;99.90
27439;DHT22;14887;51.252;7.470;2023-09-12T12:50:16;30.10;99.90
27439;DHT22;14887;51.252;7.470;2023-09-12T12:52:47;30.80;99.90
27439;DHT22;14887;51.252;7.470;2023-09-12T12:55:14;31.20;99.90
27439;DHT22;14887;51.252;7.470;2023-09-12T12:57:42;31.00;99.90
27439;DHT22;14887;51.252;7.470;2023-09-12T13:00:10;30.60;99.90
27439;DHT22;14887;51.252;7.470;2023-09-12T13:02:37;30.50;99.90
27439;DHT22;14887;51.252;7.470;2023-09-12T13:05:03;30.50;99.90
27439;DHT22;14887;51.252;7.470;2023-09-12T13:07:29;30.70;99.90
27439;DHT22;14887;51.252;7.470;2023-09-12T13:09:54;31.30;99.90
27439;DHT22;14887;51.252;7.470;2023-09-12T13:12:20;31.90;99.90
27439;DHT22;14887;51.252;7.470;2023-09-12T13:14:46;32.30;99.90
27439;DHT22;14887;51.252;7.470;2023-09-12T13:17:11;33.00;99.90
27439;DHT22;14887;51.252;7.470;2023-09-12T13:19:37;33.90;99.90
27439;DHT22;14887;51.252;7.470;2023-09-12T13:22:03;34.80;99.90
27439;DHT22;14887;51.252;7.470;2023-09-12T13:24:28;35.60;99.90
27439;DHT22;14887;51.252;7.470;2023-09-12T13:26:54;35.30;99.90
27439;DHT22;14887;51.252;7.470;2023-09-12T13:29:19;34.90;99.80
27439;DHT22;14887;51.252;7.470;2023-09-12T13:31:45;35.10;99.20
27439;DHT22;14887;51.252;7.470;2023-09-12T13:34:11;35.20;98.00
27439;DHT22;14887;51.252;7.470;2023-09-12T13:36:36;35.60;98.30
27439;DHT22;14887;51.252;7.470;2023-09-12T13:39:02;36.10;97.10
27439;DHT22;14887;51.252;7.470;2023-09-12T13:41:29;35.70;93.50
27439;DHT22;14887;51.252;7.470;2023-09-12T13:43:55;35.90;94.60
27439;DHT22;14887;51.252;7.470;2023-09-12T13:46:20;36.60;94.70
27439;DHT22;14887;51.252;7.470;2023-09-12T13:48:46;36.20;90.30
27439;DHT22;14887;51.252;7.470;2023-09-12T13:51:12;35.70;83.90
27439;DHT22;14887;51.252;7.470;2023-09-12T13:53:38;36.10;88.90
27439;DHT22;14887;51.252;7.470;2023-09-12T13:56:05;36.20;86.40
27439;DHT22;14887;51.252;7.470;2023-09-12T13:58:31;36.80;88.60
27439;DHT22;14887;51.252;7.470;2023-09-12T14:00:58;37.10;89.80
27439;DHT22;14887;51.252;7.470;2023-09-12T14:03:24;35.50;68.60
27439;DHT22;14887;51.252;7.470;2023-09-12T14:05:50;34.40;56.50
27439;DHT22;14887;51.252;7.470;2023-09-12T14:08:15;33.00;44.80
27439;DHT22;14887;51.252;7.470;2023-09-12T14:10:41;32.50;46.80
27439;DHT22;14887;51.252;7.470;2023-09-12T14:13:07;33.30;55.40
27439;DHT22;14887;51.252;7.470;2023-09-12T14:15:33;34.10;63.20
27439;DHT22;14887;51.252;7.470;2023-09-12T14:17:59;33.80;55.00
27439;DHT22;14887;51.252;7.470;2023-09-12T14:20:24;32.60;44.00
27439;DHT22;14887;51.252;7.470;2023-09-12T14:22:50;32.70;51.10
27439;DHT22;14887;51.252;7.470;2023-09-12T14:25:15;33.40;55.70
27439;DHT22;14887;51.252;7.470;2023-09-12T14:27:42;34.00;57.00
27439;DHT22;14887;51.252;7.470;2023-09-12T14:30:09;35.00;63.20
27439;DHT22;14887;51.252;7.470;2023-09-12T14:32:35;35.60;67.10
27439;DHT22;14887;51.252;7.470;2023-09-12T14:35:01;36.20;74.60
27439;DHT22;14887;51.252;7.470;2023-09-12T14:37:27;35.70;64.40
27439;DHT22;14887;51.252;7.470;2023-09-12T14:39:53;34.50;50.70
27439;DHT22;14887;51.252;7.470;2023-09-12T14:42:20;34.20;47.00
27439;DHT22;14887;51.252;7.470;2023-09-12T14:44:46;34.40;48.30
27439;DHT22;14887;51.252;7.470;2023-09-12T14:47:12;35.20;57.80
27439;DHT22;14887;51.252;7.470;2023-09-12T14:49:37;36.10;62.00
27439;DHT22;14887;51.252;7.470;2023-09-12T14:52:03;36.70;64.10
27439;DHT22;14887;51.252;7.470;2023-09-12T14:54:29;36.90;63.00
27439;DHT22;14887;51.252;7.470;2023-09-12T14:56:55;35.40;47.90
27439;DHT22;14887;51.252;7.470;2023-09-12T14:59:21;35.40;49.50
27439;DHT22;14887;51.252;7.470;2023-09-12T15:01:47;35.00;43.80
27439;DHT22;14887;51.252;7.470;2023-09-12T15:04:12;35.30;44.60
27439;DHT22;14887;51.252;7.470;2023-09-12T15:06:39;35.40;49.60
27439;DHT22;14887;51.252;7.470;2023-09-12T15:09:04;35.20;44.30
27439;DHT22;14887;51.252;7.470;2023-09-12T15:11:31;35.40;43.30
27439;DHT22;14887;51.252;7.470;2023-09-12T15:13:57;35.50;44.40
27439;DHT22;14887;51.252;7.470;2023-09-12T15:16:23;34.70;37.30
27439;DHT22;14887;51.252;7.470;2023-09-12T15:18:49;34.20;33.80
27439;DHT22;14887;51.252;7.470;2023-09-12T15:21:15;33.00;24.90
27439;DHT22;14887;51.252;7.470;2023-09-12T15:23:41;32.30;22.10
27439;DHT22;14887;51.252;7.470;2023-09-12T15:26:06;31.60;20.50
27439;DHT22;14887;51.252;7.470;2023-09-12T15:28:32;30.90;17.20
27439;DHT22;14887;51.252;7.470;2023-09-12T15:30:57;30.10;21.30
27439;DHT22;14887;51.252;7.470;2023-09-12T15:33:25;29.30;28.40
27439;DHT22;14887;51.252;7.470;2023-09-12T15:35:51;28.70;55.20
27439;DHT22;14887;51.252;7.470;2023-09-12T15:38:16;28.30;91.60
27439;DHT22;14887;51.252;7.470;2023-09-12T15:40:42;27.70;99.90
27439;DHT22;14887;51.252;7.470;2023-09-12T15:43:07;27.50;99.90
27439;DHT22;14887;51.252;7.470;2023-09-12T15:45:33;27.40;99.90